Time;durP1;ratioP1;P1;durP2;ratioP2;P2;SDS_P1;SDS_P2;PMS_P1;PMS_P2;Temp;Humidity;BMP_temperature;BMP_pressure;BME280_temperature;BME280_humidity;BME280_pressure;Samples;Min_cycle;Max_cycle;Signal;HPM_P1;HPM_P2
2022/10/13 00:00:24;;;;;;;10.20;7.55;;;;;;;9.77;70.48;95554.56;5045801;28;20350;-69
2022/10/13 00:02:49;;;;;;;8.30;7.30;;;;;;;9.78;70.36;95548.44;5067399;28;20064;-69
2022/10/13 00:05:15;;;;;;;9.82;7.55;;;;;;;9.72;70.36;95556.63;5051548;28;20076;-69
2022/10/13 00:07:40;;;;;;;10.70;6.95;;;;;;;9.70;70.24;95543.78;5066714;28;20082;-69
2022/10/13 00:10:06;;;;;;;8.90;7.57;;;;;;;9.69;70.34;95552.47;5068893;28;20025;-69
2022/10/13 00:12:35;;;;;;;10.70;7.72;;;;;;;9.75;70.34;95551.22;5069190;28;20033;-69
2022/10/13 00:15:01;;;;;;;10.07;7.18;;;;;;;9.65;70.21;95538.06;5070340;28;20043;-69
2022/10/13 00:17:26;;;;;;;9.50;7.28;;;;;;;9.57;70.35;95528.19;5072800;28;20024;-69
2022/10/13 00:19:51;;;;;;;11.43;7.65;;;;;;;9.76;70.08;95534.75;5072420;28;20466;-69
2022/10/13 00:22:17;;;;;;;9.43;6.88;;;;;;;9.69;69.96;95525.72;5074152;28;20544;-69
2022/10/13 00:24:42;;;;;;;9.45;7.00;;;;;;;9.65;69.63;95526.88;5058165;28;22045;-69
2022/10/13 00:27:08;;;;;;;12.07;7.60;;;;;;;9.72;69.64;95536.72;5054135;28;20048;-69
2022/10/13 00:29:33;;;;;;;7.18;6.15;;;;;;;9.87;68.97;95534.00;5053790;28;20036;-69
2022/10/13 00:31:58;;;;;;;9.98;6.78;;;;;;;9.79;69.10;95516.38;5036302;28;20056;-69
2022/10/13 00:34:24;;;;;;;9.32;6.47;;;;;;;9.84;69.08;95530.69;5053600;28;20033;-69
2022/10/13 00:36:49;;;;;;;10.45;7.45;;;;;;;9.78;69.53;95533.72;5066458;28;20037;-69
2022/10/13 00:39:15;;;;;;;8.82;6.32;;;;;;;9.63;69.73;95526.94;5053812;28;20079;-69
2022/10/13 00:41:40;;;;;;;9.65;6.82;;;;;;;9.76;69.48;95526.97;5052380;28;20036;-69
2022/10/13 00:44:26;;;;;;;9.48;7.40;;;;;;;9.69;69.79;95515.31;5053603;28;20044;-69
2022/10/13 00:46:52;;;;;;;10.60;7.65;;;;;;;9.75;70.09;95533.06;5053700;28;20025;-69
2022/10/13 00:49:17;;;;;;;8.48;7.22;;;;;;;9.83;69.61;95523.00;5053686;28;20502;-69
2022/10/13 00:51:44;;;;;;;8.55;6.43;;;;;;;9.75;69.03;95522.69;5035780;28;20086;-69
2022/10/13 00:54:10;;;;;;;7.75;6.45;;;;;;;9.79;68.45;95519.78;5045255;28;20107;-69
2022/10/13 00:56:36;;;;;;;10.02;6.72;;;;;;;9.59;69.37;95528.09;5072304;28;20097;-69
2022/10/13 00:59:02;;;;;;;9.85;7.75;;;;;;;9.48;70.43;95522.81;5070462;28;20052;-69
2022/10/13 01:01:27;;;;;;;10.93;8.10;;;;;;;9.53;70.31;95531.94;5072371;28;20027;-69
2022/10/13 01:03:53;;;;;;;11.68;7.65;;;;;;;9.55;70.23;95524.03;5055487;28;20032;-69
2022/10/13 01:06:18;;;;;;;8.57;7.07;;;;;;;9.43;70.10;95517.94;5055491;28;20049;-69
2022/10/13 01:08:43;;;;;;;8.10;6.35;;;;;;;9.52;69.52;95513.88;5056569;28;20087;-69
2022/10/13 01:11:18;;;;;;;7.30;6.30;;;;;;;9.39;70.03;95524.25;5053710;28;20439;-69
2022/10/13 01:14:42;;;;;;;8.18;6.82;;;;;;;9.06;70.79;95522.97;5053244;28;20070;-69
2022/10/13 01:17:35;;;;;;;7.78;6.47;;;;;;;9.11;70.74;95505.34;5032716;28;20547;-69
2022/10/13 01:20:33;;;;;;;9.55;6.30;;;;;;;9.12;70.68;95519.97;5036997;28;20414;-69
2022/10/13 01:23:35;;;;;;;8.73;7.00;;;;;;;9.22;70.99;95524.53;5044245;28;20109;-69
2022/10/13 01:26:19;;;;;;;8.25;6.90;;;;;;;9.26;70.77;95516.47;5070776;28;20041;-69
2022/10/13 01:29:12;;;;;;;8.60;7.00;;;;;;;9.10;71.75;95515.81;5071232;28;20494;-69
2022/10/13 01:32:07;;;;;;;8.57;7.10;;;;;;;9.08;71.88;95509.88;5072650;28;20113;-69
2022/10/13 01:34:35;;;;;;;9.45;6.95;;;;;;;9.02;72.04;95511.13;5039416;28;20040;-69
2022/10/13 01:37:05;;;;;;;9.07;7.28;;;;;;;9.02;72.42;95505.13;5071561;28;20430;-69
2022/10/13 01:39:53;;;;;;;9.13;7.13;;;;;;;9.08;72.87;95520.25;5071135;28;20024;-69
2022/10/13 01:42:23;;;;;;;12.07;7.80;;;;;;;9.15;72.93;95522.34;5071470;28;20024;-69
2022/10/13 01:44:55;;;;;;;10.43;8.13;;;;;;;9.03;73.40;95512.81;5054489;28;20029;-69
2022/10/13 01:47:21;;;;;;;9.30;7.75;;;;;;;9.01;73.85;95514.66;5034513;28;20049;-69
2022/10/13 01:49:46;;;;;;;12.80;8.50;;;;;;;8.91;74.73;95518.78;5042495;28;20460;-69
2022/10/13 01:52:14;;;;;;;10.25;7.75;;;;;;;8.84;74.88;95514.94;5069588;28;20417;-69
2022/10/13 01:54:40;;;;;;;13.25;8.48;;;;;;;8.78;75.03;95512.75;5071141;28;20034;-69
2022/10/13 01:57:45;;;;;;;11.00;8.30;;;;;;;8.88;74.78;95512.03;5054508;28;20123;-69
2022/10/13 02:00:15;;;;;;;10.75;8.20;;;;;;;8.77;75.16;95511.88;5031140;28;20075;-69
2022/10/13 02:03:05;;;;;;;10.35;8.40;;;;;;;8.88;74.67;95514.63;5024082;28;20105;-70
2022/10/13 02:05:36;;;;;;;10.88;8.70;;;;;;;8.78;75.17;95513.56;5063365;28;20418;-70
2022/10/13 02:08:13;;;;;;;10.82;8.05;;;;;;;8.71;75.55;95518.28;5052510;28;20032;-70
2022/10/13 02:11:10;;;;;;;11.73;8.50;;;;;;;8.59;76.05;95515.69;5018684;28;20044;-67
2022/10/13 02:13:35;;;;;;;11.07;8.60;;;;;;;8.56;76.11;95502.94;5050878;28;20025;-70
2022/10/13 02:16:01;;;;;;;12.23;8.73;;;;;;;8.61;75.87;95516.38;5025103;28;20043;-69
2022/10/13 02:18:29;;;;;;;11.40;8.40;;;;;;;8.47;76.11;95502.59;5070749;28;20032;-70
2022/10/13 02:20:55;;;;;;;10.52;7.97;;;;;;;8.62;76.01;95507.72;5056842;28;20036;-70
2022/10/13 02:23:20;;;;;;;10.23;8.30;;;;;;;8.60;75.55;95496.59;5046066;28;20039;-67
2022/10/13 02:25:46;;;;;;;12.20;8.27;;;;;;;8.62;75.18;95502.53;5070736;28;20130;-70
2022/10/13 02:28:12;;;;;;;9.98;7.60;;;;;;;8.68;74.85;95502.13;5070592;28;20077;-70
2022/10/13 02:30:38;;;;;;;11.48;8.48;;;;;;;8.75;74.98;95503.41;5070265;28;20051;-70
2022/10/13 02:33:03;;;;;;;11.38;8.52;;;;;;;8.70;74.82;95501.09;5067644;28;20163;-70
2022/10/13 02:35:29;;;;;;;11.50;8.82;;;;;;;8.74;74.52;95504.31;5033815;28;20083;-68
2022/10/13 02:37:55;;;;;;;10.82;8.50;;;;;;;8.67;74.24;95490.13;5051757;28;20029;-68
2022/10/13 02:40:20;;;;;;;10.82;7.93;;;;;;;8.78;74.43;95497.19;5050383;28;20059;-68
2022/10/13 02:42:46;;;;;;;11.77;8.20;;;;;;;8.77;74.57;95496.34;5051267;28;20411;-68
2022/10/13 02:45:11;;;;;;;11.13;8.27;;;;;;;8.63;75.07;95484.28;5050335;28;20072;-68
2022/10/13 02:47:37;;;;;;;11.65;8.43;;;;;;;8.56;75.21;95477.03;5050290;28;20033;-68
2022/10/13 02:50:03;;;;;;;10.63;8.23;;;;;;;8.65;74.99;95492.78;5051541;28;20033;-68
2022/10/13 02:52:28;;;;;;;10.35;8.10;;;;;;;8.67;75.02;95479.75;5052196;28;20033;-69
2022/10/13 02:54:53;;;;;;;13.18;8.23;;;;;;;8.69;75.42;95485.66;5067161;28;20052;-69
2022/10/13 02:57:19;;;;;;;11.80;8.57;;;;;;;8.64;75.15;95487.72;5070064;28;20029;-69
2022/10/13 02:59:44;;;;;;;10.05;7.80;;;;;;;8.72;75.30;95485.47;5069606;28;20037;-69
2022/10/13 03:02:10;;;;;;;10.68;7.88;;;;;;;8.69;75.44;95485.66;5071230;28;20739;-69
2022/10/13 03:04:35;;;;;;;11.57;8.32;;;;;;;8.74;74.88;95481.00;5069787;28;20036;-69
2022/10/13 03:07:01;;;;;;;13.52;8.82;;;;;;;8.71;75.00;95470.84;5060372;28;20029;-69
2022/10/13 03:09:26;;;;;;;10.68;8.68;;;;;;;8.73;75.17;95474.16;5049781;28;20037;-69
2022/10/13 03:11:52;;;;;;;11.73;9.02;;;;;;;8.71;75.17;95470.84;5069934;28;20085;-70
2022/10/13 03:14:17;;;;;;;11.93;9.20;;;;;;;8.73;75.22;95474.16;5052890;28;20024;-69
2022/10/13 03:16:43;;;;;;;17.70;13.27;;;;;;;8.71;73.71;95476.03;5070601;28;20028;-69
2022/10/13 03:19:08;;;;;;;16.73;12.50;;;;;;;8.64;73.06;95482.56;5070901;28;20028;-69
2022/10/13 03:21:34;;;;;;;16.15;11.55;;;;;;;8.67;72.70;95467.63;5034135;28;20020;-69
2022/10/13 03:23:59;;;;;;;15.30;10.32;;;;;;;8.62;72.56;95479.22;5069787;28;20033;-69
2022/10/13 03:26:24;;;;;;;12.55;10.48;;;;;;;8.69;72.34;95488.22;5068705;28;20047;-69
2022/10/13 03:28:50;;;;;;;13.95;10.60;;;;;;;8.63;72.50;95486.03;5014131;28;20036;-69
2022/10/13 03:31:16;;;;;;;14.57;11.63;;;;;;;8.66;72.35;95483.25;5045988;28;20045;-69
2022/10/13 03:33:42;;;;;;;15.70;11.88;;;;;;;8.57;72.95;95489.03;5029935;28;20061;-69
2022/10/13 03:36:07;;;;;;;15.38;10.35;;;;;;;8.33;73.16;95455.16;5029838;28;20064;-69
2022/10/13 03:38:33;;;;;;;16.00;10.65;;;;;;;8.42;73.63;95501.22;5059107;28;20036;-71
2022/10/13 03:41:08;;;;;;;16.38;10.68;;;;;;;8.33;73.83;95484.47;5052930;28;20082;-69
2022/10/13 03:43:34;;;;;;;14.93;11.80;;;;;;;8.29;74.04;95483.81;5049318;28;20040;-69
2022/10/13 03:46:00;;;;;;;15.10;11.77;;;;;;;8.35;74.20;95486.94;5032788;28;20045;-69
2022/10/13 03:48:25;;;;;;;14.75;11.45;;;;;;;8.40;74.20;95487.53;5050626;28;20021;-70
2022/10/13 03:50:51;;;;;;;15.20;11.90;;;;;;;8.36;74.48;95491.19;5052713;28;20136;-69
2022/10/13 03:53:16;;;;;;;11.27;8.93;;;;;;;8.50;75.02;95486.84;5054682;28;20096;-69
2022/10/13 03:55:50;;;;;;;13.30;10.38;;;;;;;8.42;75.33;95483.09;5054866;28;20074;-69
2022/10/13 03:58:15;;;;;;;12.50;9.43;;;;;;;8.50;75.60;95476.50;5054694;28;20479;-69
2022/10/13 04:00:41;;;;;;;12.25;9.38;;;;;;;8.59;75.66;95480.25;5054728;28;20032;-69
2022/10/13 04:03:06;;;;;;;13.25;9.25;;;;;;;8.56;75.49;95472.69;5054510;28;20503;-69
2022/10/13 04:05:33;;;;;;;16.85;11.80;;;;;;;8.56;75.92;95471.84;5056220;28;20041;-69
2022/10/13 04:07:58;;;;;;;13.60;10.20;;;;;;;8.34;75.33;95475.78;5074021;28;20025;-69
2022/10/13 04:10:24;;;;;;;16.70;11.48;;;;;;;8.06;75.76;95476.69;5058477;28;20036;-69
2022/10/13 04:12:49;;;;;;;17.55;13.32;;;;;;;8.25;76.36;95478.94;5054238;28;20029;-69
2022/10/13 04:15:15;;;;;;;14.20;10.05;;;;;;;8.21;76.42;95475.69;5055385;28;20025;-69
2022/10/13 04:17:40;;;;;;;17.25;11.52;;;;;;;8.40;76.09;95485.75;5054468;28;20124;-69
2022/10/13 04:20:06;;;;;;;16.42;11.68;;;;;;;8.43;76.19;95475.22;5054316;28;20041;-69
2022/10/13 04:22:31;;;;;;;16.90;10.95;;;;;;;8.50;75.79;95470.50;5016323;28;20034;-69
2022/10/13 04:24:57;;;;;;;15.50;11.20;;;;;;;8.52;75.38;95473.78;5033023;28;20044;-69
2022/10/13 04:27:22;;;;;;;15.70;11.70;;;;;;;8.44;75.33;95456.19;5033124;28;20025;-69
2022/10/13 04:29:48;;;;;;;15.25;10.95;;;;;;;8.70;74.63;95470.03;5060595;28;20036;-70
2022/10/13 04:32:13;;;;;;;14.65;10.63;;;;;;;8.66;74.14;95465.13;5054385;28;20032;-69
2022/10/13 04:34:39;;;;;;;40.33;18.15;;;;;;;8.60;74.71;95468.13;5056048;28;20466;-69
2022/10/13 04:37:04;;;;;;;33.80;18.98;;;;;;;8.53;75.59;95469.47;5072402;28;20441;-69
2022/10/13 04:39:30;;;;;;;18.60;12.23;;;;;;;8.47;75.83;95466.34;5055863;28;20028;-69
2022/10/13 04:41:55;;;;;;;17.70;12.38;;;;;;;8.49;76.05;95456.69;5060164;28;20043;-69
2022/10/13 04:44:21;;;;;;;14.45;10.20;;;;;;;8.49;76.39;95461.88;5059937;28;20036;-70
2022/10/13 04:46:46;;;;;;;14.05;9.93;;;;;;;8.43;76.71;95461.44;5072509;28;20406;-69
2022/10/13 04:49:12;;;;;;;18.75;12.10;;;;;;;8.36;77.07;95475.66;5071472;28;20490;-69
2022/10/13 04:51:37;;;;;;;13.38;10.02;;;;;;;8.39;77.05;95471.16;5071273;28;20093;-69
2022/10/13 04:54:04;;;;;;;16.30;11.07;;;;;;;8.29;77.00;95475.22;5066666;28;20021;-70
2022/10/13 04:56:29;;;;;;;15.30;11.43;;;;;;;8.29;77.17;95472.63;5063465;28;20024;-69
2022/10/13 04:58:55;;;;;;;12.85;9.05;;;;;;;8.45;77.30;95475.94;5067776;28;20154;-69
2022/10/13 05:01:22;;;;;;;14.15;11.00;;;;;;;8.35;77.21;95464.47;5056811;28;20120;-69
2022/10/13 05:03:58;;;;;;;19.02;12.25;;;;;;;8.43;76.96;95476.97;5053389;28;20461;-69
2022/10/13 05:06:26;;;;;;;18.30;12.43;;;;;;;8.36;77.34;95480.84;5052316;28;20124;-69
2022/10/13 05:08:51;;;;;;;14.75;11.35;;;;;;;8.37;77.05;95480.75;5052169;28;20105;-69
2022/10/13 05:11:18;;;;;;;13.10;10.40;;;;;;;8.45;77.22;95488.06;5052271;28;20530;-69
2022/10/13 05:13:44;;;;;;;18.20;12.05;;;;;;;8.45;76.62;95473.34;5052070;28;20025;-69
2022/10/13 05:16:11;;;;;;;16.70;12.20;;;;;;;8.64;76.15;95485.97;5052168;28;20044;-69
2022/10/13 05:18:37;;;;;;;17.33;12.02;;;;;;;8.69;76.11;95472.69;5051855;28;20033;-70
2022/10/13 05:21:16;;;;;;;15.60;11.55;;;;;;;8.82;75.17;95483.94;5053496;28;20048;-69
2022/10/13 05:23:41;;;;;;;15.57;11.98;;;;;;;8.82;74.88;95499.47;5051843;28;20033;-69
2022/10/13 05:26:08;;;;;;;15.20;11.90;;;;;;;8.77;74.81;95488.56;5051975;28;20056;-69
2022/10/13 05:28:36;;;;;;;16.40;11.63;;;;;;;8.86;74.80;95498.34;5035303;28;20483;-69
2022/10/13 05:31:26;;;;;;;17.05;12.52;;;;;;;8.90;74.46;95496.38;5052767;28;20115;-70
2022/10/13 05:33:52;;;;;;;14.77;11.68;;;;;;;8.95;74.39;95492.56;5037709;28;20025;-69
2022/10/13 05:36:22;;;;;;;18.23;12.55;;;;;;;9.00;74.41;95501.78;5043038;28;20453;-69
2022/10/13 05:38:55;;;;;;;14.43;11.90;;;;;;;9.02;74.72;95512.88;5055740;28;20449;-69
2022/10/13 05:41:21;;;;;;;16.08;11.98;;;;;;;8.97;74.54;95510.63;5038490;28;20135;-69
2022/10/13 05:43:46;;;;;;;15.90;12.27;;;;;;;8.97;74.37;95520.13;5072633;28;20035;-70
2022/10/13 05:46:12;;;;;;;18.83;13.02;;;;;;;8.96;74.29;95529.66;5071561;28;20033;-69
2022/10/13 05:48:37;;;;;;;15.23;11.90;;;;;;;9.15;73.89;95526.72;5072567;28;20028;-69
2022/10/13 05:51:14;;;;;;;17.98;12.35;;;;;;;9.27;74.09;95536.25;5054000;28;20029;-69
2022/10/13 05:53:42;;;;;;;15.65;11.55;;;;;;;9.31;73.75;95537.72;5051245;28;20094;-69
2022/10/13 05:56:10;;;;;;;16.83;12.65;;;;;;;9.26;73.48;95529.44;5032802;28;20025;-70
2022/10/13 05:58:42;;;;;;;15.40;11.85;;;;;;;9.45;73.35;95538.59;5051063;28;20688;-70
2022/10/13 06:01:10;;;;;;;18.15;12.35;;;;;;;9.32;73.85;95536.78;5034841;28;20455;-70
2022/10/13 06:03:35;;;;;;;18.15;13.38;;;;;;;9.40;73.46;95533.69;5050936;28;20033;-70
2022/10/13 06:06:00;;;;;;;19.55;13.63;;;;;;;9.53;72.98;95542.31;5051094;28;20483;-70
2022/10/13 06:08:26;;;;;;;24.75;14.05;;;;;;;9.68;72.69;95547.41;5033415;28;20495;-69
2022/10/13 06:10:52;;;;;;;19.83;13.98;;;;;;;9.55;72.90;95539.59;5032320;28;20465;-70
2022/10/13 06:13:17;;;;;;;23.02;14.55;;;;;;;9.45;73.22;95536.00;5015651;28;20032;-70
2022/10/13 06:15:43;;;;;;;19.20;14.95;;;;;;;9.36;73.60;95535.66;5032108;28;20159;-70
2022/10/13 06:18:09;;;;;;;20.30;14.82;;;;;;;9.32;73.81;95505.69;5050014;28;20028;-69
2022/10/13 06:20:35;;;;;;;21.02;13.88;;;;;;;9.81;72.99;95535.28;5032292;28;20044;-70
2022/10/13 06:23:00;;;;;;;22.83;14.65;;;;;;;10.05;72.29;95537.91;5048638;28;20115;-69
2022/10/13 06:25:26;;;;;;;21.58;14.68;;;;;;;10.18;72.28;95504.97;5051961;28;20033;-70
2022/10/13 06:27:51;;;;;;;19.58;14.95;;;;;;;10.55;71.70;95536.16;5050659;28;20033;-69
2022/10/13 06:30:17;;;;;;;16.40;13.02;;;;;;;10.82;70.83;95537.75;5051659;28;20045;-69
2022/10/13 06:32:42;;;;;;;19.25;12.63;;;;;;;11.12;69.93;95519.09;5051258;28;20037;-70
2022/10/13 06:35:08;;;;;;;14.70;12.02;;;;;;;11.53;67.99;95517.75;5051428;28;20029;-71
2022/10/13 06:37:33;;;;;;;19.33;12.73;;;;;;;11.91;66.42;95533.09;5050094;28;20040;-72
2022/10/13 06:39:59;;;;;;;15.90;12.55;;;;;;;12.27;65.14;95523.38;5049458;28;20482;-72
2022/10/13 06:42:24;;;;;;;17.38;12.80;;;;;;;12.72;63.53;95523.28;5049711;28;20423;-70
2022/10/13 06:44:50;;;;;;;18.27;12.32;;;;;;;13.03;63.23;95526.84;5049280;28;20419;-70
2022/10/13 06:47:15;;;;;;;20.00;11.90;;;;;;;13.40;61.98;95524.72;5049689;28;20032;-70
2022/10/13 06:49:41;;;;;;;15.07;11.30;;;;;;;13.77;60.60;95523.41;5050125;28;20041;-69
2022/10/13 06:52:06;;;;;;;16.42;11.82;;;;;;;13.61;60.50;95521.25;5050843;28;20041;-69
2022/10/13 06:54:31;;;;;;;16.40;11.77;;;;;;;13.48;61.15;95515.41;5037264;28;20036;-69
2022/10/13 06:56:57;;;;;;;19.35;12.65;;;;;;;13.61;61.23;95493.34;5065516;28;20498;-69
2022/10/13 06:59:22;;;;;;;16.30;11.25;;;;;;;13.55;60.67;95514.75;5064901;28;20040;-69
2022/10/13 07:01:48;;;;;;;16.77;11.95;;;;;;;13.68;60.66;95511.97;5050537;28;20036;-69
2022/10/13 07:04:14;;;;;;;15.30;11.00;;;;;;;13.85;59.71;95513.97;5032656;28;20039;-69
2022/10/13 07:06:39;;;;;;;13.65;11.40;;;;;;;14.09;59.41;95503.19;5049533;28;20025;-69
2022/10/13 07:09:05;;;;;;;16.83;10.95;;;;;;;14.52;57.97;95517.00;5051011;28;20021;-69
2022/10/13 07:11:31;;;;;;;16.17;12.93;;;;;;;14.40;58.46;95515.41;5048804;28;20037;-69
2022/10/13 07:13:56;;;;;;;18.77;12.98;;;;;;;14.47;57.89;95499.06;5033106;28;20384;-69
2022/10/13 07:16:21;;;;;;;17.77;12.18;;;;;;;14.53;57.71;95510.81;5050972;28;20029;-69
2022/10/13 07:18:47;;;;;;;19.08;13.82;;;;;;;15.25;55.42;95493.09;5048986;28;20040;-69
2022/10/13 07:21:12;;;;;;;20.75;13.43;;;;;;;16.04;53.71;95504.09;5033327;28;20453;-69
2022/10/13 07:23:38;;;;;;;15.88;11.40;;;;;;;16.59;51.81;95500.66;5049442;28;20391;-69
2022/10/13 07:26:11;;;;;;;16.65;11.73;;;;;;;17.16;49.77;95497.78;5016457;28;20049;-69
2022/10/13 07:28:36;;;;;;;15.32;10.73;;;;;;;17.48;49.56;95496.44;5049710;28;20071;-69
2022/10/13 07:31:10;;;;;;;15.27;11.65;;;;;;;17.98;48.80;95504.50;5049452;28;20045;-69
2022/10/13 07:33:36;;;;;;;14.02;11.75;;;;;;;18.41;47.00;95496.63;5033043;28;20557;-69
2022/10/13 07:36:02;;;;;;;18.65;11.63;;;;;;;18.85;46.48;95509.63;5016678;28;20095;-69
2022/10/13 07:38:27;;;;;;;13.43;12.02;;;;;;;19.14;45.24;95486.34;5049562;28;20024;-69
2022/10/13 07:40:53;;;;;;;16.05;11.45;;;;;;;19.47;44.27;95502.13;5051029;28;20033;-69
2022/10/13 07:43:18;;;;;;;13.48;11.18;;;;;;;19.53;44.20;95490.94;5050635;28;20037;-69
2022/10/13 07:45:45;;;;;;;18.23;12.25;;;;;;;19.34;44.64;95486.81;5049818;28;20025;-70
2022/10/13 07:48:11;;;;;;;14.57;11.77;;;;;;;19.75;44.09;95493.91;5049433;28;20515;-70
2022/10/13 07:50:36;;;;;;;13.60;11.23;;;;;;;19.97;43.20;95490.56;5032804;28;20036;-70
2022/10/13 07:53:01;;;;;;;13.00;10.52;;;;;;;20.16;42.19;95488.53;5049506;28;20074;-69
2022/10/13 07:55:27;;;;;;;15.38;11.65;;;;;;;20.29;41.97;95492.28;5050752;28;20040;-70
2022/10/13 08:25:11;;;;;;;18.90;15.40;;;;;;;17.49;50.18;95487.56;5149596;27;20790;-75
2022/10/13 08:27:37;;;;;;;18.83;13.68;;;;;;;17.33;49.42;95481.22;5149686;27;20030;-76
2022/10/13 08:30:03;;;;;;;17.17;13.52;;;;;;;17.26;49.95;95477.53;5149982;27;20058;-75
2022/10/13 08:32:29;;;;;;;16.20;13.68;;;;;;;17.24;49.97;95473.41;5149564;27;20083;-76
2022/10/13 08:34:54;;;;;;;19.10;14.35;;;;;;;17.06;49.95;95478.69;5131108;27;20442;-76
2022/10/13 08:37:20;;;;;;;17.77;14.35;;;;;;;16.85;50.51;95473.72;5149496;27;20022;-76
2022/10/13 08:39:46;;;;;;;19.02;13.95;;;;;;;16.61;51.07;95458.56;5114060;27;20027;-76
2022/10/13 08:42:19;;;;;;;18.13;13.27;;;;;;;16.53;51.27;95459.31;5130909;27;20507;-76
2022/10/13 08:44:56;;;;;;;16.00;12.30;;;;;;;16.62;51.40;95468.88;5148151;27;20514;-76
2022/10/13 08:47:33;;;;;;;18.45;13.48;;;;;;;16.51;51.72;95471.72;5148125;27;20556;-76
2022/10/13 08:50:01;;;;;;;16.88;13.25;;;;;;;16.35;52.14;95472.34;5149266;27;20027;-76
2022/10/13 08:52:28;;;;;;;15.73;13.20;;;;;;;16.28;52.18;95464.25;5130966;27;20102;-76
2022/10/13 08:54:54;;;;;;;16.35;12.90;;;;;;;16.28;52.46;95451.16;5131171;27;20105;-76
2022/10/13 08:57:19;;;;;;;17.30;13.88;;;;;;;16.24;52.90;95459.44;5113535;27;20560;-75
2022/10/13 08:59:45;;;;;;;18.80;14.65;;;;;;;16.41;51.99;95463.94;5147828;27;20059;-76
2022/10/13 09:02:44;;;;;;;20.48;13.45;;;;;;;16.41;52.42;95463.09;5147795;27;20399;-76
2022/10/13 09:05:26;;;;;;;19.65;14.27;;;;;;;16.45;53.20;95452.16;5125545;27;20043;-76
2022/10/13 09:07:51;;;;;;;18.55;14.13;;;;;;;16.42;52.94;95451.63;5114284;27;20031;-76
2022/10/13 09:10:17;;;;;;;18.63;13.60;;;;;;;16.55;52.52;95452.13;5130507;27;20498;-74
2022/10/13 09:12:43;;;;;;;19.02;12.77;;;;;;;16.59;52.66;95442.97;5147745;27;20030;-75
2022/10/13 09:15:10;;;;;;;17.05;11.93;;;;;;;16.54;51.98;95425.03;5148872;27;20411;-75
2022/10/13 09:17:36;;;;;;;15.88;12.10;;;;;;;16.69;51.68;95427.16;5130168;27;20023;-75
2022/10/13 09:20:13;;;;;;;17.42;12.07;;;;;;;16.75;52.06;95439.69;5147543;27;20500;-76
2022/10/13 09:22:39;;;;;;;14.52;11.30;;;;;;;16.75;51.81;95434.44;5114068;27;20035;-76
2022/10/13 09:25:08;;;;;;;14.90;11.75;;;;;;;16.76;52.11;95433.44;5139121;27;20096;-75
2022/10/13 09:27:53;;;;;;;16.27;12.32;;;;;;;16.30;52.74;95407.28;5134815;27;20115;-76
2022/10/13 09:30:28;;;;;;;20.17;12.77;;;;;;;16.47;52.68;95403.03;5117162;27;20183;-75
2022/10/13 09:33:12;;;;;;;19.30;12.88;;;;;;;16.81;51.79;95412.88;5116463;27;20110;-75
2022/10/13 09:35:44;;;;;;;19.00;12.48;;;;;;;16.70;52.37;95413.88;5134568;27;20027;-75
2022/10/13 09:38:10;;;;;;;18.90;13.23;;;;;;;16.73;52.50;95415.38;5133410;27;20028;-75
2022/10/13 09:40:36;;;;;;;20.65;13.98;;;;;;;16.81;52.95;95414.69;5116139;27;20027;-76
2022/10/13 09:43:15;;;;;;;14.57;11.38;;;;;;;16.94;52.13;95400.19;5116182;27;20031;-75
2022/10/13 09:45:41;;;;;;;18.83;11.40;;;;;;;17.13;51.35;95406.22;5118369;27;20055;-75
2022/10/13 09:48:18;;;;;;;18.50;11.88;;;;;;;17.11;51.79;95395.91;5133229;27;20507;-75
2022/10/13 09:50:48;;;;;;;13.95;11.40;;;;;;;16.73;52.64;95391.78;5133264;27;20492;-75
2022/10/13 09:53:20;;;;;;;15.98;11.48;;;;;;;16.95;52.55;95393.97;5132877;27;20058;-75
2022/10/13 09:55:48;;;;;;;13.27;10.75;;;;;;;16.90;52.31;95367.34;5133024;27;20034;-75
2022/10/13 09:58:17;;;;;;;13.27;10.60;;;;;;;17.14;52.16;95402.66;5133014;27;20038;-75
2022/10/13 10:00:43;;;;;;;14.10;10.18;;;;;;;17.25;52.02;95386.66;5116151;27;20412;-75
2022/10/13 10:03:18;;;;;;;14.40;10.95;;;;;;;17.42;51.64;95392.81;5132885;27;20027;-75
2022/10/13 10:05:50;;;;;;;15.80;11.40;;;;;;;17.52;50.49;95382.19;5116195;27;20023;-74
2022/10/13 10:08:21;;;;;;;12.70;10.32;;;;;;;17.42;51.42;95374.44;5134220;27;20050;-75
2022/10/13 10:10:47;;;;;;;14.88;10.85;;;;;;;17.36;51.81;95375.06;5115982;27;20118;-75
2022/10/13 10:13:13;;;;;;;13.15;10.18;;;;;;;17.39;51.73;95378.19;5134043;27;20035;-74
2022/10/13 10:16:03;;;;;;;15.15;10.45;;;;;;;17.19;50.78;95376.75;5132605;27;20027;-74
2022/10/13 10:18:47;;;;;;;12.75;10.35;;;;;;;16.80;51.66;95369.25;5132565;27;20034;-74
2022/10/13 10:21:44;;;;;;;14.65;10.07;;;;;;;16.86;52.04;95360.78;5132564;27;20019;-74
2022/10/13 10:24:44;;;;;;;12.98;9.80;;;;;;;17.03;52.08;95360.91;5132241;27;20055;-74
2022/10/13 10:28:11;;;;;;;13.13;10.20;;;;;;;17.00;52.24;95334.97;5132661;27;20102;-74
2022/10/13 10:30:42;;;;;;;13.38;9.38;;;;;;;17.23;51.92;95358.91;5105426;27;20107;-74
2022/10/13 10:33:10;;;;;;;14.23;9.98;;;;;;;17.35;51.95;95357.66;5132317;27;20080;-74
2022/10/13 10:35:43;;;;;;;11.75;9.07;;;;;;;17.39;51.86;95356.38;5131909;27;20035;-74
2022/10/13 10:38:18;;;;;;;11.23;9.10;;;;;;;17.43;51.35;95350.63;5114464;27;20035;-74
2022/10/13 10:41:01;;;;;;;11.80;9.57;;;;;;;17.57;51.00;95343.97;5132050;27;20019;-74
2022/10/13 10:43:45;;;;;;;14.35;10.38;;;;;;;17.65;50.75;95338.75;5132171;27;20054;-74
2022/10/13 10:46:16;;;;;;;12.65;8.82;;;;;;;17.71;50.79;95323.34;5133286;27;20023;-74
2022/10/13 10:48:42;;;;;;;13.50;9.25;;;;;;;17.81;50.33;95313.56;5115150;27;20031;-73
2022/10/13 10:51:07;;;;;;;14.13;9.93;;;;;;;17.93;50.27;95312.28;5115272;27;20042;-73
2022/10/13 10:53:39;;;;;;;13.40;9.18;;;;;;;18.06;49.92;95311.84;5114783;27;20117;-74
2022/10/13 10:56:24;;;;;;;11.73;8.82;;;;;;;18.11;49.51;95308.69;5133112;27;20045;-73
2022/10/13 10:59:17;;;;;;;10.02;8.05;;;;;;;18.05;49.19;95304.91;5098158;27;20096;-74
2022/10/13 11:01:51;;;;;;;10.80;8.38;;;;;;;18.13;48.78;95302.31;5132967;27;20411;-74
2022/10/13 11:04:34;;;;;;;9.63;8.35;;;;;;;18.08;48.85;95302.81;5115601;27;20039;-73
2022/10/13 11:07:01;;;;;;;11.88;8.82;;;;;;;18.07;49.18;95298.50;5132856;27;20404;-73
2022/10/13 11:09:41;;;;;;;12.25;8.60;;;;;;;18.11;49.36;95292.94;5097682;27;20117;-73
2022/10/13 11:12:19;;;;;;;14.63;8.52;;;;;;;18.20;48.32;95290.16;5131472;27;20587;-73
2022/10/13 11:14:45;;;;;;;11.63;8.82;;;;;;;18.13;48.92;95281.28;5132532;27;20061;-73
2022/10/13 11:17:37;;;;;;;10.20;7.50;;;;;;;18.21;48.79;95281.28;5114171;27;20035;-73
2022/10/13 11:20:18;;;;;;;11.20;7.72;;;;;;;18.14;48.08;95275.03;5130585;27;20042;-73
2022/10/13 11:22:59;;;;;;;;;;;;;;;18.24;48.21;95262.56;5132875;27;20035;-73
2022/10/13 11:25:33;;;;;;;11.60;7.30;;;;;;;18.40;48.01;95261.75;5132540;27;19991;-73
2022/10/13 11:27:59;;;;;;;12.65;7.55;;;;;;;18.56;46.59;95260.94;5132360;27;20091;-72
2022/10/13 11:31:06;;;;;;;9.95;7.40;;;;;;;18.67;46.46;95252.69;5131264;27;20027;-72
2022/10/13 11:33:50;;;;;;;7.38;6.18;;;;;;;18.85;46.33;95249.06;5089021;28;20090;-72
2022/10/13 11:36:33;;;;;;;9.85;8.00;;;;;;;19.06;45.95;95257.28;5129067;27;20675;-72
2022/10/13 11:39:24;;;;;;;9.65;7.13;;;;;;;19.19;45.17;95254.94;5132595;27;20043;-72
2022/10/13 11:42:20;;;;;;;8.90;6.85;;;;;;;19.29;45.18;95240.75;5132224;27;20019;-73
2022/10/13 11:44:58;;;;;;;8.93;7.28;;;;;;;19.44;44.75;95239.00;5130938;27;20039;-72
2022/10/13 11:47:42;;;;;;;10.02;7.05;;;;;;;19.46;44.26;95236.22;5130726;27;20419;-73
2022/10/13 11:50:34;;;;;;;8.32;6.53;;;;;;;19.55;44.86;95233.38;5132095;27;20568;-73
2022/10/13 11:53:10;;;;;;;8.02;6.45;;;;;;;19.48;43.77;95224.53;5131004;27;20172;-73
2022/10/13 11:55:46;;;;;;;9.30;6.57;;;;;;;19.33;43.52;95215.69;5130913;27;20031;-73
2022/10/13 11:58:31;;;;;;;10.13;7.25;;;;;;;19.56;43.37;95221.84;5097847;27;20107;-73
2022/10/13 12:00:57;;;;;;;13.35;7.13;;;;;;;19.55;43.92;95211.47;5132058;27;20019;-73
2022/10/13 12:03:24;;;;;;;11.00;7.20;;;;;;;19.66;43.95;95220.84;5113673;27;20043;-73
2022/10/13 12:05:50;;;;;;;8.43;7.05;;;;;;;19.54;43.74;95210.66;5130739;27;20019;-73
2022/10/13 12:08:16;;;;;;;8.18;6.90;;;;;;;19.57;44.24;95220.84;5113754;27;20038;-72